Bookmark and Share
Track history (hours):
 

Emerald Leader

Last reported at 2014-Apr-15 02:34 UTC. Time now 2014-Apr-17 06:43 UTC.
Position N 50°40' W 005°28'.

Length 176 m; draft 8.2 m.

Type: Cargo ship. MMSI: 308688000.

NotesDate/timePositionNaut miles runAvg speedWind from/ knotsBaromVisibWave heightAir tempDewpointWater temp
2014-Apr-15 02:34N 50°40' W 005°28'1514.5
2014-Apr-15 01:33N 50°49' W 005°10'7915.9
2014-Apr-14 20:33N 51°22' W 003°15'1818.0
2014-Apr-14 19:34N 51°29' W 002°49'4 3.6
2014-Apr-14 18:33N 51°30' W 002°43'0 0.0
2014-Apr-14 17:33N 51°30' W 002°43'0 0.0
2014-Apr-14 16:33N 51°30' W 002°43'0 0.0
2014-Apr-14 15:33N 51°30' W 002°43'0 0.0
2014-Apr-14 14:33N 51°30' W 002°43'0 0.0
2014-Apr-14 13:33N 51°30' W 002°43'0 0.0
2014-Apr-14 11:30N 51°30' W 002°43'0 0.0
2014-Apr-14 10:33N 51°30' W 002°43'0 0.0
2014-Apr-14 09:33N 51°30' W 002°43'0 0.0
2014-Apr-14 08:33N 51°30' W 002°43'0 0.0
2014-Apr-14 07:33N 51°30' W 002°43'0 0.0
2014-Apr-14 06:33N 51°30' W 002°43'0 0.0
2014-Apr-14 05:33N 51°30' W 002°43'0 0.0
2014-Apr-13 22:33N 51°30' W 002°43'0 0.0
2014-Apr-13 21:33N 51°30' W 002°43'0 0.0
2014-Apr-13 20:33N 51°30' W 002°43'0 0.4
2014-Apr-13 19:33N 51°30' W 002°43'1 0.7
2014-Apr-13 18:33N 51°31' W 002°44'8 7.6
2014-Apr-13 17:33N 51°28' W 002°55'1515.2
2014-Apr-13 16:33N 51°21' W 003°17'76 5.0
2014-Apr-13 01:33N 50°50' W 005°06'1615.8
2014-Apr-13 00:33N 50°39' W 005°25'1715.6
2014-Apr-12 23:29N 50°28' W 005°45'14111.7
2014-Apr-12 11:23N 50°10' W 002°06'1617.5
2014-Apr-12 10:28N 50°13' W 001°41'1516.5
2014-Apr-12 09:32N 50°17' W 001°18'1515.2
2014-Apr-12 08:33N 50°21' W 000°56'1413.7
2014-Apr-12 07:33N 50°25' W 000°35'1413.8
2014-Apr-12 06:33N 50°28' W 000°14'1514.9
2014-Apr-12 05:32N 50°32' E 000°09'1515.0
2014-Apr-12 04:33N 50°35' E 000°32'1616.0
2014-Apr-12 03:33N 50°44' E 000°52'1716.6
2014-Apr-12 02:33N 50°55' E 001°13'1616.1
2014-Apr-12 01:34N 51°06' E 001°31'1414.2
2014-Apr-12 00:33N 51°16' E 001°48'1312.9
2014-Apr-11 23:33N 51°25' E 002°02'1414.0
2014-Apr-11 22:33N 51°22' E 002°24'1413.9
2014-Apr-11 21:33N 51°22' E 002°46'1514.7
2014-Apr-11 20:33N 51°23' E 003°10'4 3.4
2014-Apr-11 19:27N 51°20' E 003°13'1 1.3
2014-Apr-11 18:29N 51°19' E 003°13'0 0.0
2014-Apr-11 17:32N 51°19' E 003°13'0 0.0
2014-Apr-11 16:32N 51°19' E 003°13'0 0.0
2014-Apr-11 15:32N 51°19' E 003°13'0 0.0
2014-Apr-11 14:32N 51°19' E 003°13'0 0.0
2014-Apr-11 13:32N 51°19' E 003°13'0 0.0
2014-Apr-11 12:32N 51°19' E 003°13'0 0.0
2014-Apr-11 11:32N 51°19' E 003°13'0 0.0
2014-Apr-11 10:32N 51°19' E 003°13'0 0.0
2014-Apr-11 09:29N 51°19' E 003°13'0 0.0
2014-Apr-11 08:32N 51°19' E 003°13'0 0.0
2014-Apr-11 07:32N 51°19' E 003°13'0 0.0
2014-Apr-11 06:26N 51°19' E 003°13'0 0.0
2014-Apr-11 05:33N 51°19' E 003°13'0 0.0
2014-Apr-11 04:29N 51°19' E 003°13'0 0.0
2014-Apr-11 03:32N 51°19' E 003°13'0 0.0
2014-Apr-11 02:32N 51°19' E 003°13'0 0.0
2014-Apr-11 01:32N 51°19' E 003°13'0 0.0
2014-Apr-11 00:26N 51°19' E 003°13'0 0.0
2014-Apr-10 23:32N 51°19' E 003°13'0 0.0
2014-Apr-10 22:29N 51°19' E 003°13'0 0.0
2014-Apr-10 21:33N 51°19' E 003°13'1 1.0
2014-Apr-10 20:31N 51°18' E 003°14'0 0.0
2014-Apr-10 19:31N 51°18' E 003°14'0 0.0
2014-Apr-10 18:31N 51°18' E 003°14'0 0.0
2014-Apr-10 17:31N 51°18' E 003°14'0 0.0
2014-Apr-10 16:22N 51°18' E 003°14'0 0.0
2014-Apr-10 15:25N 51°18' E 003°14'0 0.0
2014-Apr-10 14:31N 51°18' E 003°14'0 0.0
2014-Apr-10 13:28N 51°18' E 003°14'0 0.0
2014-Apr-10 12:31N 51°18' E 003°14'0 0.0
2014-Apr-10 11:31N 51°18' E 003°14'0 0.0
2014-Apr-10 10:31N 51°18' E 003°14'0 0.0
2014-Apr-10 09:31N 51°18' E 003°14'0 0.0
2014-Apr-10 08:31N 51°18' E 003°14'0 0.0
2014-Apr-10 07:31N 51°18' E 003°14'0 0.0
2014-Apr-10 06:31N 51°18' E 003°14'0 0.2
2014-Apr-10 05:33N 51°18' E 003°14'2 1.9
2014-Apr-10 04:33N 51°20' E 003°13'2 2.0
2014-Apr-10 03:34N 51°22' E 003°11'4 3.9
2014-Apr-10 02:33N 51°24' E 003°06'8 7.8
2014-Apr-10 01:33N 51°22' E 002°54'8 7.8
2014-Apr-10 00:33N 51°26' E 002°43'5 4.9
2014-Apr-09 23:33N 51°30' E 002°47'1514.8
2014-Apr-09 22:32N 51°42' E 003°03'3 2.7
2014-Apr-09 21:32N 51°44' E 003°03'2 2.0
2014-Apr-09 20:33N 51°44' E 002°60'2 1.8
2014-Apr-09 19:33N 51°44' E 002°57'2 1.5
2014-Apr-09 18:33N 51°45' E 002°54'4 4.4
2014-Apr-09 17:33N 51°45' E 002°47'1614.7
2014-Apr-09 16:28N 52°01' E 002°50'3215.8
2014-Apr-09 14:26N 52°28' E 003°20'1914.8
2014-Apr-09 13:09N 52°43' E 003°38'914.5
2014-Apr-09 12:34N 52°49' E 003°48'1414.1
2014-Apr-09 11:33N 53°00' E 004°03'1414.0
2014-Apr-09 10:32N 53°09' E 004°22'1514.3
2014-Apr-09 09:28N 53°23' E 004°33'1314.3
2014-Apr-09 08:33N 53°31' E 004°50'1515.4
2014-Apr-09 07:33N 53°36' E 005°14'1515.3
2014-Apr-09 06:34N 53°41' E 005°38'1514.9
2014-Apr-09 05:33N 53°46' E 006°02'4214.0
2014-Apr-09 02:33N 53°56' E 007°12'1413.9
2014-Apr-09 01:34N 53°60' E 007°34'1212.2
2014-Apr-09 00:33N 53°53' E 007°52'1414.2
2014-Apr-08 23:34N 53°45' E 008°12'1616.1
2014-Apr-08 22:33N 53°34' E 008°32'1 1.3
2014-Apr-08 21:33N 53°34' E 008°34'0 0.4
2014-Apr-08 20:33N 53°34' E 008°34'0 0.0
2014-Apr-08 19:33N 53°34' E 008°34'0 0.0
2014-Apr-08 18:33N 53°34' E 008°34'0 0.0
2014-Apr-08 17:33N 53°34' E 008°34'0 0.0
2014-Apr-08 16:33N 53°34' E 008°34'0 0.0
2014-Apr-08 15:33N 53°34' E 008°34'0 0.0
2014-Apr-08 14:33N 53°34' E 008°34'0 0.0
2014-Apr-08 13:33N 53°34' E 008°34'0 0.0
2014-Apr-08 12:33N 53°34' E 008°34'0 0.0
2014-Apr-08 11:33N 53°34' E 008°34'0 0.0
2014-Apr-08 10:33N 53°34' E 008°34'0 0.0
2014-Apr-08 09:33N 53°34' E 008°34'0 0.0
2014-Apr-08 08:33N 53°34' E 008°34'0 0.0
2014-Apr-08 07:33N 53°34' E 008°34'0 0.0
2014-Apr-08 06:33N 53°34' E 008°34'0 0.0
2014-Apr-08 05:33N 53°34' E 008°34'0 0.0
2014-Apr-08 04:33N 53°34' E 008°34'0 0.0
2014-Apr-08 03:33N 53°34' E 008°34'0 0.0
2014-Apr-08 02:33N 53°34' E 008°34'0 0.0
2014-Apr-08 01:33N 53°34' E 008°34'0 0.0
2014-Apr-08 00:33N 53°34' E 008°34'0 0.0
2014-Apr-07 23:33N 53°34' E 008°34'0 0.0
2014-Apr-07 22:33N 53°34' E 008°34'0 0.0
2014-Apr-07 21:33N 53°34' E 008°34'0 0.0
2014-Apr-07 20:33N 53°34' E 008°34'0 0.0
2014-Apr-07 19:33N 53°34' E 008°34'0 0.2
2014-Apr-07 17:34N 53°33' E 008°34'9 8.9
2014-Apr-07 16:34N 53°40' E 008°23'1716.7
2014-Apr-07 15:33N 53°51' E 008°02'1211.7
2014-Apr-07 14:33N 53°53' E 007°42'1111.3
2014-Apr-07 13:33N 53°53' E 007°23'1514.8
2014-Apr-07 12:33N 53°50' E 006°58'3115.4
2014-Apr-07 10:33N 53°43' E 006°08'1616.3
2014-Apr-07 09:33N 53°38' E 005°42'1616.2
2014-Apr-07 08:33N 53°32' E 005°16'1817.6
2014-Apr-07 07:33N 53°26' E 004°48'5217.1
2014-Apr-07 04:29N 52°42' E 004°02'5914.2
2014-Apr-07 00:21N 51°59' E 002°55'1414.5
2014-Apr-06 23:21N 51°49' E 002°39'1215.0
2014-Apr-06 22:33N 51°40' E 002°27'1515.2
2014-Apr-06 21:33N 51°27' E 002°13'1515.3
2014-Apr-06 20:33N 51°13' E 002°02'1616.0
2014-Apr-06 19:33N 51°03' E 001°42'2416.2
2014-Apr-06 18:04N 50°43' E 001°21'2815.5
2014-Apr-06 16:16N 50°28' E 000°44'1115.7
2014-Apr-06 15:33N 50°25' E 000°27'6817.0
2014-Apr-06 11:33N 50°05' W 001°14'  

Dump ship's entire track history

sailing weather and tide predictions

Emerald Leader — C6WP4 — position and weather